createdAt,value
2023-02-19T00:01:50.373Z,89.31
2023-02-19T00:04:21.847Z,89.09
2023-02-19T00:06:50.197Z,90.12
2023-02-19T00:09:19.971Z,90.33
2023-02-19T00:11:48.459Z,89.24
2023-02-19T00:14:19.240Z,90.38
2023-02-19T00:16:47.448Z,89.55
2023-02-19T00:19:17.428Z,89.94
2023-02-19T00:21:47.358Z,87.99
2023-02-19T00:24:16.311Z,87.78
2023-02-19T00:26:45.597Z,88.89
2023-02-19T00:29:15.126Z,88.12
2023-02-19T00:31:43.899Z,87.05
2023-02-19T00:34:13.027Z,87.41
2023-02-19T00:36:42.404Z,87.56
2023-02-19T00:39:15.240Z,87.47
2023-02-19T00:41:43.235Z,87.66
2023-02-19T00:44:12.454Z,92.54
2023-02-19T00:46:42.802Z,95.45
2023-02-19T00:49:17.442Z,99.54
2023-02-19T00:51:45.608Z,100.00
2023-02-19T00:54:15.251Z,100.00
2023-02-19T00:56:43.120Z,100.00
2023-02-19T00:59:11.023Z,100.00
2023-02-19T01:01:39.285Z,100.00
2023-02-19T01:04:07.285Z,100.00
2023-02-19T01:06:35.644Z,100.00
2023-02-19T01:09:04.010Z,100.00
2023-02-19T01:11:33.553Z,100.00
2023-02-19T01:14:03.467Z,100.00
2023-02-19T01:16:32.481Z,100.00
2023-02-19T01:19:00.661Z,100.00
2023-02-19T01:21:30.131Z,100.00
2023-02-19T01:23:58.941Z,100.00
2023-02-19T01:26:30.287Z,100.00
2023-02-19T01:28:59.838Z,100.00
2023-02-19T01:31:28.214Z,95.62
2023-02-19T01:33:58.296Z,100.00
2023-02-19T01:36:27.087Z,100.00
2023-02-19T01:38:55.533Z,100.00
2023-02-19T01:41:25.690Z,100.00
2023-02-19T01:44:01.544Z,100.00
2023-02-19T01:46:32.651Z,100.00
2023-02-19T01:49:07.693Z,90.52
2023-02-19T01:51:37.654Z,84.87
2023-02-19T01:54:10.320Z,100.00
2023-02-19T01:56:40.604Z,76.01
2023-02-19T01:59:10.485Z,89.55
2023-02-19T02:01:40.356Z,99.88
2023-02-19T02:04:10.923Z,95.99
2023-02-19T02:06:45.794Z,100.00
2023-02-19T02:09:32.332Z,100.00
2023-02-19T02:12:00.302Z,100.00
2023-02-19T02:14:34.804Z,99.85
2023-02-19T02:17:14.820Z,100.00
2023-02-19T02:20:12.540Z,100.00
2023-02-19T02:22:47.212Z,100.00
2023-02-19T02:25:45.428Z,100.00
2023-02-19T02:28:35.110Z,100.00
2023-02-19T02:31:09.046Z,100.00
2023-02-19T02:33:42.335Z,100.00
2023-02-19T02:36:17.119Z,100.00
2023-02-19T02:38:48.272Z,100.00
2023-02-19T02:41:17.412Z,100.00
2023-02-19T02:43:45.251Z,100.00
2023-02-19T02:46:20.116Z,100.00
2023-02-19T02:48:53.951Z,100.00
2023-02-19T02:51:27.529Z,100.00
2023-02-19T02:54:26.160Z,100.00
2023-02-19T02:56:57.569Z,100.00
2023-02-19T02:59:33.297Z,100.00
2023-02-19T03:02:11.833Z,100.00
2023-02-19T03:05:06.312Z,100.00
2023-02-19T03:07:40.091Z,100.00
2023-02-19T03:10:11.632Z,100.00
2023-02-19T03:12:59.665Z,100.00
2023-02-19T03:15:50.677Z,100.00
2023-02-19T03:18:38.532Z,100.00
2023-02-19T03:21:08.727Z,100.00
2023-02-19T03:23:57.711Z,100.00
2023-02-19T03:26:27.334Z,100.00
2023-02-19T03:29:15.499Z,100.00
2023-02-19T03:31:48.783Z,100.00
2023-02-19T03:34:26.057Z,100.00
2023-02-19T03:37:01.967Z,100.00
2023-02-19T03:39:30.673Z,100.00
2023-02-19T03:42:07.882Z,100.00
2023-02-19T03:44:45.371Z,100.00
2023-02-19T03:47:19.195Z,100.00
2023-02-19T03:49:54.014Z,100.00
2023-02-19T03:52:31.452Z,100.00
2023-02-19T03:55:04.342Z,100.00
2023-02-19T03:57:40.522Z,100.00
2023-02-19T04:00:14.841Z,100.00
2023-02-19T04:02:49.816Z,100.00
2023-02-19T04:05:22.491Z,100.00
2023-02-19T04:07:53.281Z,100.00
2023-02-19T04:10:26.812Z,100.00
2023-02-19T04:13:00.476Z,100.00
2023-02-19T04:15:33.081Z,100.00
2023-02-19T04:18:06.137Z,100.00
2023-02-19T04:20:40.477Z,100.00
2023-02-19T04:23:08.729Z,100.00
2023-02-19T04:25:39.482Z,100.00
2023-02-19T04:28:09.036Z,100.00
2023-02-19T04:30:37.172Z,100.00
2023-02-19T04:33:05.182Z,100.00
2023-02-19T04:35:33.087Z,100.00
2023-02-19T04:38:02.408Z,100.00
2023-02-19T04:40:30.390Z,100.00
2023-02-19T04:42:58.219Z,100.00
2023-02-19T04:45:26.191Z,100.00
2023-02-19T04:47:54.087Z,100.00
2023-02-19T04:50:23.269Z,100.00
2023-02-19T04:52:51.539Z,100.00
2023-02-19T04:55:20.903Z,100.00
2023-02-19T04:57:48.795Z,100.00
2023-02-19T05:00:16.916Z,100.00
2023-02-19T05:02:44.895Z,100.00
2023-02-19T05:05:12.962Z,100.00
2023-02-19T05:07:40.812Z,100.00
2023-02-19T05:10:09.295Z,100.00
2023-02-19T05:12:38.680Z,100.00
2023-02-19T05:15:07.050Z,100.00
2023-02-19T05:17:35.575Z,100.00
2023-02-19T05:20:03.702Z,100.00
2023-02-19T05:22:31.761Z,100.00
2023-02-19T05:24:59.687Z,100.00
2023-02-19T05:27:27.601Z,100.00
2023-02-19T05:29:56.861Z,100.00
2023-02-19T05:32:24.699Z,100.00
2023-02-19T05:34:52.818Z,100.00
2023-02-19T05:37:20.661Z,100.00
2023-02-19T05:39:50.063Z,100.00
2023-02-19T05:42:18.151Z,100.00
2023-02-19T05:44:46.073Z,100.00
2023-02-19T05:47:15.670Z,100.00
2023-02-19T05:49:43.784Z,100.00
2023-02-19T05:52:12.154Z,100.00
2023-02-19T05:54:40.251Z,100.00
2023-02-19T05:57:08.127Z,100.00
2023-02-19T05:59:36.087Z,100.00
2023-02-19T06:02:04.133Z,100.00
2023-02-19T06:04:33.550Z,100.00
2023-02-19T06:07:01.632Z,100.00
2023-02-19T06:09:29.678Z,100.00
2023-02-19T06:11:57.563Z,100.00
2023-02-19T06:14:25.558Z,100.00
2023-02-19T06:16:53.579Z,100.00
2023-02-19T06:19:21.689Z,100.00
2023-02-19T06:21:52.550Z,100.00
2023-02-19T06:24:20.591Z,100.00
2023-02-19T06:26:48.534Z,100.00
2023-02-19T06:29:17.907Z,100.00
2023-02-19T06:31:46.548Z,100.00
2023-02-19T06:34:14.529Z,100.00
2023-02-19T06:36:42.577Z,100.00
2023-02-19T06:39:12.091Z,100.00
2023-02-19T06:41:39.914Z,100.00
2023-02-19T06:44:07.939Z,100.00
2023-02-19T06:46:36.107Z,100.00
2023-02-19T06:49:05.460Z,100.00
2023-02-19T06:51:33.568Z,100.00
2023-02-19T06:54:03.337Z,100.00
2023-02-19T06:56:34.565Z,100.00
2023-02-19T06:59:04.669Z,100.00
2023-02-19T07:01:34.325Z,100.00
2023-02-19T07:04:02.628Z,100.00
2023-02-19T07:06:31.017Z,100.00
2023-02-19T07:09:00.173Z,100.00
2023-02-19T07:11:30.860Z,100.00
2023-02-19T07:14:02.331Z,100.00
2023-02-19T07:16:30.702Z,100.00
2023-02-19T07:19:00.043Z,100.00
2023-02-19T07:21:29.036Z,100.00
2023-02-19T07:23:57.765Z,100.00
2023-02-19T07:26:26.055Z,100.00
2023-02-19T07:28:54.414Z,100.00
2023-02-19T07:31:25.067Z,100.00
2023-02-19T07:33:53.276Z,98.90
2023-02-19T07:36:23.509Z,98.80
2023-02-19T07:38:55.349Z,99.66
2023-02-19T07:41:24.393Z,99.03
2023-02-19T07:43:52.411Z,94.07
2023-02-19T07:46:24.060Z,93.66
2023-02-19T07:48:52.309Z,92.29
2023-02-19T07:51:21.606Z,95.52
2023-02-19T07:53:51.450Z,94.95
2023-02-19T07:56:20.169Z,92.43
2023-02-19T07:58:48.256Z,91.74
2023-02-19T08:01:40.861Z,89.75
2023-02-19T08:04:10.864Z,91.57
2023-02-19T08:06:38.993Z,91.04
2023-02-19T08:09:07.319Z,89.54
2023-02-19T08:11:52.775Z,87.93
2023-02-19T08:14:23.921Z,89.01
2023-02-19T08:16:52.428Z,87.12
2023-02-19T08:19:22.520Z,83.27
2023-02-19T08:21:51.102Z,89.91
2023-02-19T08:24:18.981Z,87.78
2023-02-19T08:26:46.946Z,84.45
2023-02-19T08:29:14.932Z,83.29
2023-02-19T08:31:43.392Z,81.61
2023-02-19T08:34:11.790Z,81.88
2023-02-19T08:36:41.270Z,83.65
2023-02-19T08:39:10.357Z,82.56
2023-02-19T08:41:38.792Z,83.50
2023-02-19T08:44:06.826Z,82.62
2023-02-19T08:46:35.112Z,80.80
2023-02-19T08:49:03.136Z,83.54
2023-02-19T08:51:31.247Z,80.38
2023-02-19T08:54:03.595Z,81.50
2023-02-19T08:56:31.966Z,83.82
2023-02-19T08:59:00.206Z,81.13
2023-02-19T09:01:28.319Z,83.60
2023-02-19T09:03:56.237Z,80.85
2023-02-19T09:06:24.151Z,83.61
2023-02-19T09:08:52.094Z,82.79
2023-02-19T09:11:21.924Z,82.83
2023-02-19T09:13:49.952Z,81.01
2023-02-19T09:16:17.775Z,84.43
2023-02-19T09:18:46.801Z,87.20
2023-02-19T09:21:14.794Z,88.16
2023-02-19T09:23:42.652Z,89.72
2023-02-19T09:26:11.674Z,84.95
2023-02-19T09:28:41.958Z,83.87
2023-02-19T09:31:13.011Z,82.12
2023-02-19T09:33:44.563Z,87.14
2023-02-19T09:36:12.827Z,88.35
2023-02-19T09:38:41.195Z,87.94
2023-02-19T09:41:15.016Z,91.85
2023-02-19T09:43:45.611Z,86.68
2023-02-19T09:46:25.099Z,85.76
2023-02-19T09:48:54.394Z,83.37
2023-02-19T09:51:24.046Z,78.34
2023-02-19T09:53:53.440Z,80.96
2023-02-19T09:56:21.543Z,84.56
2023-02-19T09:58:53.905Z,84.80
2023-02-19T10:01:26.010Z,83.70
2023-02-19T10:03:54.013Z,84.95
2023-02-19T10:06:24.071Z,82.88
2023-02-19T10:08:57.083Z,82.69
2023-02-19T10:11:27.493Z,80.23
2023-02-19T10:14:05.439Z,83.41
2023-02-19T10:16:34.928Z,79.21
2023-02-19T10:19:03.053Z,86.00
2023-02-19T10:21:31.427Z,79.78
2023-02-19T10:24:03.600Z,82.20
2023-02-19T10:26:35.236Z,77.19
2023-02-19T10:29:05.231Z,77.59
2023-02-19T10:31:34.499Z,74.72
2023-02-19T10:34:04.465Z,81.45
2023-02-19T10:36:34.958Z,78.76
2023-02-19T10:39:07.200Z,75.67
2023-02-19T10:41:36.092Z,76.52
2023-02-19T10:44:09.032Z,73.56
2023-02-19T10:46:43.106Z,74.50
2023-02-19T10:49:24.196Z,73.39
2023-02-19T10:51:54.680Z,77.10
2023-02-19T10:54:31.222Z,75.16
2023-02-19T10:57:29.837Z,73.69
2023-02-19T11:00:02.373Z,70.30
2023-02-19T11:02:31.819Z,69.56
2023-02-19T11:05:18.119Z,67.54
2023-02-19T11:07:48.689Z,65.33
2023-02-19T11:10:29.741Z,68.44
2023-02-19T11:13:00.158Z,65.37
2023-02-19T11:15:32.165Z,66.33
2023-02-19T11:18:04.306Z,66.36
2023-02-19T11:20:33.116Z,69.94
2023-02-19T11:23:06.312Z,68.28
2023-02-19T11:25:34.935Z,70.31
2023-02-19T11:28:07.926Z,66.71
2023-02-19T11:30:40.638Z,64.51
2023-02-19T11:33:28.201Z,63.98
2023-02-19T11:36:17.931Z,60.44
2023-02-19T11:38:45.857Z,60.92
2023-02-19T11:41:24.041Z,61.98
2023-02-19T11:44:06.547Z,60.81
2023-02-19T11:46:43.975Z,58.29
2023-02-19T11:49:26.395Z,59.79
2023-02-19T11:52:07.979Z,60.19
2023-02-19T11:54:50.933Z,60.50
2023-02-19T11:57:35.940Z,59.59
2023-02-19T12:00:19.569Z,58.04
2023-02-19T12:03:05.699Z,60.30
2023-02-19T12:05:49.790Z,59.20
2023-02-19T12:08:53.034Z,60.00
2023-02-19T12:11:41.957Z,58.02
2023-02-19T12:14:27.300Z,58.20
2023-02-19T12:17:04.181Z,60.60
2023-02-19T12:19:44.990Z,58.63
2023-02-19T12:22:29.563Z,56.70
2023-02-19T12:25:25.721Z,55.27
2023-02-19T12:28:09.990Z,55.99
2023-02-19T12:30:57.437Z,53.04
2023-02-19T12:33:45.731Z,53.16
2023-02-19T12:36:25.230Z,53.11
2023-02-19T12:39:01.610Z,52.63
2023-02-19T12:41:43.364Z,51.85
2023-02-19T12:44:16.719Z,54.24
2023-02-19T12:46:48.700Z,55.19
2023-02-19T12:49:24.520Z,53.17
2023-02-19T12:51:58.198Z,51.77
2023-02-19T12:54:29.136Z,52.68
2023-02-19T12:57:02.850Z,52.54
2023-02-19T12:59:34.734Z,52.16
2023-02-19T13:02:13.260Z,50.17
2023-02-19T13:04:47.458Z,50.77
2023-02-19T13:07:21.740Z,50.30
2023-02-19T13:09:54.869Z,48.40
2023-02-19T13:12:27.248Z,47.47
2023-02-19T13:14:59.924Z,47.03
2023-02-19T13:17:32.676Z,48.74
2023-02-19T13:20:09.537Z,47.94
2023-02-19T13:23:01.515Z,46.42
2023-02-19T13:25:45.149Z,48.78
2023-02-19T13:28:27.031Z,48.29
2023-02-19T13:31:08.614Z,47.73
2023-02-19T13:33:48.458Z,47.66
2023-02-19T13:36:20.868Z,45.97
2023-02-19T13:38:51.258Z,46.30
2023-02-19T13:41:22.584Z,46.44
2023-02-19T13:43:58.388Z,45.39
2023-02-19T13:46:34.249Z,45.75
2023-02-19T13:49:38.413Z,45.14
2023-02-19T13:52:36.810Z,44.82
2023-02-19T13:55:42.596Z,46.07
2023-02-19T13:58:54.211Z,45.64
2023-02-19T14:02:12.776Z,47.09
2023-02-19T14:04:51.261Z,46.06
2023-02-19T14:07:55.121Z,46.31
2023-02-19T14:10:58.578Z,45.39
2023-02-19T14:14:11.084Z,44.94
2023-02-19T14:16:57.085Z,43.66
2023-02-19T14:19:54.670Z,43.41
2023-02-19T14:23:05.485Z,43.86
2023-02-19T14:25:49.750Z,44.31
2023-02-19T14:28:30.129Z,45.08
2023-02-19T14:31:00.995Z,45.08
2023-02-19T14:33:32.531Z,44.81
2023-02-19T14:36:07.140Z,45.78
2023-02-19T14:38:40.439Z,45.21
2023-02-19T14:41:12.617Z,46.45
2023-02-19T14:43:42.364Z,48.54
2023-02-19T14:46:19.831Z,48.62
2023-02-19T14:48:50.407Z,47.61
2023-02-19T14:51:28.070Z,48.07
2023-02-19T14:53:59.645Z,46.90
2023-02-19T14:56:33.277Z,47.58
2023-02-19T14:59:29.287Z,47.19
2023-02-19T15:01:59.937Z,48.75
2023-02-19T15:04:29.862Z,49.04
2023-02-19T15:07:03.528Z,48.66
2023-02-19T15:09:34.370Z,46.92
2023-02-19T15:12:04.084Z,46.62
2023-02-19T15:14:34.085Z,46.39
2023-02-19T15:17:05.157Z,45.89
2023-02-19T15:19:36.083Z,45.40
2023-02-19T15:22:05.449Z,45.26
2023-02-19T15:24:33.612Z,45.67
2023-02-19T15:27:01.894Z,46.08
2023-02-19T15:29:30.286Z,47.94
2023-02-19T15:31:59.472Z,47.15
2023-02-19T15:34:30.232Z,47.45
2023-02-19T15:37:01.274Z,47.07
2023-02-19T15:39:35.909Z,46.73
2023-02-19T15:42:06.623Z,47.33
2023-02-19T15:44:49.229Z,46.95
2023-02-19T15:47:27.250Z,48.11
2023-02-19T15:50:00.469Z,48.34
2023-02-19T15:52:37.224Z,47.98
2023-02-19T15:55:20.488Z,48.09
2023-02-19T15:57:53.687Z,48.20
2023-02-19T16:00:28.708Z,48.90
2023-02-19T16:02:57.490Z,49.24
2023-02-19T16:05:27.814Z,49.33
2023-02-19T16:08:17.508Z,49.53
2023-02-19T16:11:01.641Z,49.94
2023-02-19T16:13:31.660Z,50.46
2023-02-19T16:16:05.039Z,50.61
2023-02-19T16:18:33.408Z,50.21
2023-02-19T16:21:02.316Z,50.48
2023-02-19T16:23:31.278Z,51.13
2023-02-19T16:26:04.459Z,51.39
2023-02-19T16:28:38.235Z,51.25
2023-02-19T16:31:12.245Z,51.53
2023-02-19T16:33:42.874Z,52.41
2023-02-19T16:36:33.139Z,52.37
2023-02-19T16:39:05.194Z,53.01
2023-02-19T16:41:35.314Z,52.96
2023-02-19T16:44:31.950Z,52.96
2023-02-19T16:47:05.156Z,52.59
2023-02-19T16:49:33.362Z,52.94
2023-02-19T16:52:04.270Z,52.81
2023-02-19T16:54:32.778Z,52.72
2023-02-19T16:57:02.133Z,53.15
2023-02-19T16:59:30.406Z,53.23
2023-02-19T17:02:01.102Z,53.79
2023-02-19T17:04:29.565Z,53.52
2023-02-19T17:07:00.622Z,53.58
2023-02-19T17:09:28.564Z,54.83
2023-02-19T17:11:58.903Z,54.90
2023-02-19T17:14:28.510Z,54.53
2023-02-19T17:16:56.481Z,55.44
2023-02-19T17:19:24.544Z,55.22
2023-02-19T17:21:52.494Z,55.46
2023-02-19T17:24:20.376Z,55.35
2023-02-19T17:26:48.350Z,55.45
2023-02-19T17:29:21.428Z,55.97
2023-02-19T17:31:52.665Z,56.79
2023-02-19T17:34:20.742Z,56.94
2023-02-19T17:36:49.476Z,56.30
2023-02-19T17:39:19.461Z,55.57
2023-02-19T17:41:47.409Z,55.82
2023-02-19T17:44:15.380Z,56.14
2023-02-19T17:46:43.414Z,56.02
2023-02-19T17:49:14.387Z,56.16
2023-02-19T17:51:42.457Z,56.55
2023-02-19T17:54:10.489Z,56.37
2023-02-19T17:56:43.144Z,56.50
2023-02-19T17:59:11.606Z,56.99
2023-02-19T18:01:39.810Z,57.69
2023-02-19T18:04:07.796Z,57.92
2023-02-19T18:06:37.055Z,58.37
2023-02-19T18:09:05.733Z,57.78
2023-02-19T18:11:33.935Z,57.98
2023-02-19T18:14:02.645Z,58.33
2023-02-19T18:16:30.533Z,58.75
2023-02-19T18:19:01.464Z,59.25
2023-02-19T18:21:29.420Z,59.14
2023-02-19T18:23:58.593Z,59.27
2023-02-19T18:26:28.471Z,60.84
2023-02-19T18:28:56.932Z,60.89
2023-02-19T18:31:25.051Z,61.04
2023-02-19T18:33:53.319Z,60.88
2023-02-19T18:36:21.287Z,60.50
2023-02-19T18:38:51.805Z,60.68
2023-02-19T18:41:21.679Z,60.87
2023-02-19T18:43:50.049Z,61.75
2023-02-19T18:46:21.687Z,60.65
2023-02-19T18:48:51.630Z,60.77
2023-02-19T18:51:27.958Z,62.00
2023-02-19T18:53:55.831Z,61.76
2023-02-19T18:56:29.472Z,62.04
2023-02-19T18:59:00.458Z,61.54
2023-02-19T19:01:28.589Z,61.43
2023-02-19T19:03:56.637Z,61.15
2023-02-19T19:06:25.006Z,61.77
2023-02-19T19:08:53.030Z,61.14
2023-02-19T19:11:27.616Z,59.96
2023-02-19T19:13:58.418Z,59.17
2023-02-19T19:16:29.232Z,58.98
2023-02-19T19:18:58.248Z,59.12
2023-02-19T19:21:26.363Z,59.12
2023-02-19T19:23:56.190Z,59.51
2023-02-19T19:26:26.360Z,58.74
2023-02-19T19:28:57.130Z,59.53
2023-02-19T19:31:34.293Z,60.12
2023-02-19T19:34:02.494Z,60.67
2023-02-19T19:36:32.515Z,59.54
2023-02-19T19:39:02.640Z,59.43
2023-02-19T19:41:34.098Z,59.89
2023-02-19T19:44:04.271Z,60.43
2023-02-19T19:46:32.483Z,59.61
2023-02-19T19:49:03.414Z,59.19
2023-02-19T19:51:35.347Z,59.26
2023-02-19T19:54:04.381Z,58.54
2023-02-19T19:56:33.844Z,58.30
2023-02-19T19:59:01.722Z,59.25
2023-02-19T20:01:29.801Z,59.66
2023-02-19T20:03:57.899Z,59.95
2023-02-19T20:06:28.764Z,59.79
2023-02-19T20:08:59.639Z,59.51
2023-02-19T20:11:27.983Z,59.84
2023-02-19T20:13:57.705Z,60.83
2023-02-19T20:16:27.155Z,60.47
2023-02-19T20:18:58.283Z,60.73
2023-02-19T20:21:26.329Z,60.51
2023-02-19T20:23:54.524Z,60.74
2023-02-19T20:26:24.640Z,60.95
2023-02-19T20:28:55.105Z,61.55
2023-02-19T20:31:30.234Z,62.02
2023-02-19T20:33:58.475Z,62.28
2023-02-19T20:36:28.473Z,62.38
2023-02-19T20:38:56.910Z,61.83
2023-02-19T20:41:24.811Z,62.24
2023-02-19T20:43:52.676Z,63.28
2023-02-19T20:46:20.843Z,62.91
2023-02-19T20:48:51.876Z,62.64
2023-02-19T20:51:20.054Z,63.30
2023-02-19T20:53:48.617Z,62.45
2023-02-19T20:56:16.916Z,62.71
2023-02-19T20:58:46.326Z,62.70
2023-02-19T21:01:14.497Z,63.15
2023-02-19T21:03:42.396Z,62.99
2023-02-19T21:06:13.875Z,62.72
2023-02-19T21:08:41.952Z,63.49
2023-02-19T21:11:10.437Z,62.06
2023-02-19T21:13:38.484Z,64.22
2023-02-19T21:16:08.341Z,64.24
2023-02-19T21:18:36.226Z,63.87
2023-02-19T21:21:04.428Z,64.13
2023-02-19T21:23:33.802Z,63.82
2023-02-19T21:26:03.516Z,64.59
2023-02-19T21:28:31.491Z,63.31
2023-02-19T21:30:59.446Z,63.81
2023-02-19T21:33:27.401Z,64.10
2023-02-19T21:35:57.467Z,63.25
2023-02-19T21:38:25.383Z,63.07
2023-02-19T21:40:54.608Z,62.63
2023-02-19T21:43:22.548Z,62.64
2023-02-19T21:45:50.564Z,62.52
2023-02-19T21:48:18.619Z,62.38
2023-02-19T21:50:46.499Z,62.14
2023-02-19T21:53:14.859Z,62.41
2023-02-19T21:55:57.520Z,63.44
2023-02-19T21:58:27.867Z,63.58
2023-02-19T22:00:56.507Z,63.95
2023-02-19T22:03:24.353Z,63.82
2023-02-19T22:05:52.445Z,64.85
2023-02-19T22:08:20.293Z,64.12
2023-02-19T22:10:48.426Z,65.19
2023-02-19T22:13:16.307Z,64.85
2023-02-19T22:15:45.505Z,65.16
2023-02-19T22:18:14.209Z,66.94
2023-02-19T22:20:42.127Z,67.93
2023-02-19T22:23:09.979Z,65.89
2023-02-19T22:25:37.776Z,65.75
2023-02-19T22:28:07.603Z,66.36
2023-02-19T22:30:35.544Z,65.34
2023-02-19T22:33:05.204Z,65.75
2023-02-19T22:35:33.288Z,66.67
2023-02-19T22:38:01.452Z,66.79
2023-02-19T22:40:29.442Z,67.11
2023-02-19T22:42:57.362Z,64.87
2023-02-19T22:45:25.568Z,63.91
2023-02-19T22:47:55.494Z,63.90
2023-02-19T22:50:26.437Z,63.86
2023-02-19T22:52:55.378Z,64.67
2023-02-19T22:55:23.263Z,64.34
2023-02-19T22:57:51.148Z,65.21
2023-02-19T23:00:20.981Z,65.79
2023-02-19T23:02:48.836Z,65.28
2023-02-19T23:05:17.411Z,65.28
2023-02-19T23:07:47.195Z,65.95
2023-02-19T23:10:15.207Z,65.62
2023-02-19T23:12:43.377Z,66.58
2023-02-19T23:15:12.071Z,67.97
2023-02-19T23:17:39.894Z,66.13
2023-02-19T23:20:09.131Z,67.61
2023-02-19T23:22:36.904Z,67.76
2023-02-19T23:25:06.871Z,67.11
2023-02-19T23:27:34.893Z,66.52
2023-02-19T23:30:03.096Z,69.63
2023-02-19T23:32:31.034Z,70.25
2023-02-19T23:34:59.054Z,70.40
2023-02-19T23:37:27.073Z,67.39
2023-02-19T23:39:55.111Z,71.77
2023-02-19T23:42:24.384Z,73.93
2023-02-19T23:44:52.449Z,74.67
2023-02-19T23:47:21.880Z,74.48
2023-02-19T23:49:49.784Z,74.99
2023-02-19T23:52:17.849Z,73.94
2023-02-19T23:54:45.930Z,72.44
2023-02-19T23:57:15.119Z,73.79
2023-02-19T23:59:44.788Z,74.46
